Date,TemperatureHighF,TemperatureAvgF,TemperatureLowF,DewpointHighF,DewpointAvgF,DewpointLowF,HumidityHigh,HumidityAvg,HumidityLow,PressureMaxIn,PressureMinIn,WindSpeedMaxMPH,WindSpeedAvgMPH,GustSpeedMaxMPH,PrecipitationSumIn
2013-1-1,30.4,19.9,9.9,12.7,3.7,-5.3,79,53,26,30.41,30.24,10,2,17,0.00
2013-1-2,35.2,24.4,15.1,7.2,1.6,-4.7,56,38,19,30.47,30.29,14,4,20,0.00
2013-1-3,38.1,24.9,12.6,3.0,-4.5,-11.0,57,29,12,30.49,30.37,7,3,11,0.00
2013-1-4,48.4,32.4,18.9,12.6,3.4,-4.9,49,31,14,30.38,30.10,8,3,13,0.00
2013-1-5,40.5,27.3,16.5,11.1,5.8,0.7,58,41,25,30.41,30.13,15,3,20,0.00
2013-1-6,48.6,29.5,13.3,7.9,0.7,-6.9,55,32,11,30.41,30.06,6,-2,8,0.00
2013-1-7,52.5,38.9,23.5,5.4,1.1,-4.2,45,21,10,30.06,29.80,9,3,13,0.00
2013-1-8,52.0,41.9,23.7,13.3,8.8,-1.8,49,27,16,30.19,29.78,27,1,38,0.00
2013-1-9,58.8,36.0,22.3,15.4,10.8,7.3,61,39,13,30.34,30.02,9,2,12,0.00
2013-1-10,45.1,32.4,22.1,17.6,10.4,5.4,54,40,22,30.02,29.51,14,2,29,0.00
2013-1-11,44.2,29.7,14.4,22.5,10.5,-7.4,81,50,15,29.83,29.26,17,6,29,0.00
2013-1-12,17.2,7.6,1.8,3.2,-1.1,-7.1,78,68,33,30.36,29.83,11,-1,14,0.00
2013-1-13,16.5,7.2,1.6,-0.8,-4.4,-8.5,69,59,43,30.48,30.35,11,2,13,0.00
2013-1-14,15.6,6.7,1.8,-0.6,-5.6,-9.6,63,56,45,30.51,30.38,8,2,12,0.00
2013-1-15,30.9,18.0,-1.1,9.3,-0.9,-10.8,67,45,27,30.50,30.38,7,-6,11,0.00
2013-1-16,52.9,34.4,21.4,17.8,13.0,8.6,64,44,22,30.43,30.27,9,2,14,0.00
2013-1-17,51.1,33.3,18.9,15.4,10.5,0.5,69,43,18,30.53,30.29,9,2,13,0.00
2013-1-18,58.6,45.7,28.9,2.5,-2.0,-7.1,31,14,8,30.30,29.96,25,8,37,0.00
2013-1-19,60.6,48.7,35.1,3.9,-3.7,-15.0,21,11,5,30.14,29.96,27,6,39,0.00
2013-1-20,48.9,37.6,22.1,12.0,5.3,-6.3,59,28,10,30.25,30.02,30,4,35,0.00
2013-1-21,57.0,39.4,15.6,11.8,2.3,-12.1,76,31,7,30.28,30.07,27,8,36,0.00
2013-1-22,64.0,53.8,36.1,-8.0,-20.2,-32.6,10,4,2,30.07,29.91,26,8,32,0.00
2013-1-23,53.2,43.2,30.4,3.7,-5.5,-15.5,20,12,8,30.11,29.99,6,-2,10,0.00
2013-1-24,66.0,49.2,28.4,23.2,10.2,-7.8,39,22,9,30.10,29.88,30,7,34,0.00
2013-1-25,57.6,42.8,30.9,24.1,22.0,19.6,64,45,25,30.04,29.94,10,2,13,0.00
2013-1-26,54.1,44.4,30.9,36.1,26.6,19.9,84,53,27,30.02,29.67,6,-4,9,0.00
2013-1-27,56.1,41.9,29.3,35.2,28.1,14.4,89,62,33,29.73,29.64,12,3,14,0.00
2013-1-28,53.8,35.1,25.9,23.2,14.6,10.6,85,45,27,29.75,29.48,8,2,11,0.00
2013-1-29,29.8,23.7,14.2,21.7,12.3,3.2,87,64,34,30.11,29.73,13,2,19,0.14
2013-1-30,39.0,28.8,10.8,12.6,6.4,-2.2,72,40,28,30.11,29.94,32,10,41,0.01
2013-1-31,48.0,39.4,25.9,19.0,11.3,7.2,67,33,19,30.13,29.96,25,7,35,0.04